Usk, United Kingdom
Current Conditions -  °F | °C
As of 8:50 AM on Wednesday 22 Oct 2014 (Local Time) from EGGD Reporting Station
Clear Clear  
Wind Chill: 42°   Ceiling: Unl
Heat Index: 48°   Visibility: 6mi
Dew Point: 43°   Wind: 15mph
Humidity: 82%   Direction: 280°W
Pressure: 30.3"   Gusts: NA
Location:  51.7°N, 2.9°W
Report Text: EGGD 220750Z 28013KT CAVOK 09/06 Q1026
Loading
Personal Weather Stations






























Interactive Weather Map
Tropical Storm Tracking
New forecast layout! Learn more

10-Day Weather Forecast

Advertisements
Track Severe Weather on mobile